createdAt,value
2022-10-10T00:02:02.866Z,3.80
2022-10-10T00:04:29.376Z,3.97
2022-10-10T00:06:55.932Z,4.70
2022-10-10T00:09:22.481Z,4.10
2022-10-10T00:11:49.021Z,3.63
2022-10-10T00:14:15.525Z,3.90
2022-10-10T00:16:42.058Z,5.80
2022-10-10T00:19:08.735Z,4.00
2022-10-10T00:21:35.265Z,4.63
2022-10-10T00:24:01.998Z,4.47
2022-10-10T00:26:28.574Z,3.90
2022-10-10T00:28:55.323Z,4.60
2022-10-10T00:31:21.857Z,4.37
2022-10-10T00:33:48.357Z,4.90
2022-10-10T00:36:15.008Z,4.80
2022-10-10T00:38:41.916Z,5.63
2022-10-10T00:41:08.706Z,5.40
2022-10-10T00:43:35.454Z,5.47
2022-10-10T00:46:01.925Z,5.83
2022-10-10T00:48:41.160Z,6.27
2022-10-10T00:51:12.708Z,5.70
2022-10-10T00:53:44.519Z,6.13
2022-10-10T00:56:12.335Z,6.27
2022-10-10T00:58:41.318Z,6.70
2022-10-10T01:01:08.033Z,6.53
2022-10-10T01:03:35.223Z,5.87
2022-10-10T01:06:01.954Z,6.90
2022-10-10T01:08:28.556Z,5.97
2022-10-10T01:10:58.256Z,6.90
2022-10-10T01:13:31.176Z,6.80
2022-10-10T01:16:01.164Z,7.47
2022-10-10T01:18:54.245Z,6.80
2022-10-10T01:21:27.125Z,6.57
2022-10-10T01:24:23.190Z,7.03
2022-10-10T01:27:08.666Z,7.03
2022-10-10T01:29:38.818Z,7.33
2022-10-10T01:32:09.853Z,6.57
2022-10-10T01:34:41.296Z,5.97
2022-10-10T01:37:18.645Z,7.17
2022-10-10T01:40:03.677Z,7.00
2022-10-10T01:42:32.476Z,6.10
2022-10-10T01:44:58.982Z,6.97
2022-10-10T01:47:25.696Z,5.83
2022-10-10T01:49:54.519Z,6.63
2022-10-10T01:52:39.737Z,6.53
2022-10-10T01:55:16.797Z,6.77
2022-10-10T01:57:58.587Z,6.93
2022-10-10T02:00:25.510Z,5.90
2022-10-10T02:03:07.464Z,9.10
2022-10-10T02:05:39.336Z,6.83
2022-10-10T02:08:17.370Z,6.13
2022-10-10T02:10:46.433Z,7.50
2022-10-10T02:13:13.302Z,7.13
2022-10-10T02:15:44.099Z,7.80
2022-10-10T02:18:12.035Z,7.67
2022-10-10T02:20:39.455Z,7.53
2022-10-10T02:23:06.778Z,6.70
2022-10-10T02:25:36.502Z,8.30
2022-10-10T02:28:15.410Z,6.90
2022-10-10T02:30:44.259Z,6.80
2022-10-10T02:33:12.525Z,7.20
2022-10-10T02:35:41.051Z,7.07
2022-10-10T02:38:09.275Z,6.70
2022-10-10T02:40:35.952Z,6.37
2022-10-10T02:43:03.810Z,6.30
2022-10-10T02:45:30.825Z,7.17
2022-10-10T02:47:57.687Z,7.50
2022-10-10T02:50:24.467Z,7.03
2022-10-10T02:52:51.368Z,7.73
2022-10-10T02:55:18.172Z,7.43
2022-10-10T02:57:44.761Z,8.43
2022-10-10T03:00:11.646Z,7.50
2022-10-10T03:02:38.362Z,7.77
2022-10-10T03:05:06.024Z,7.80
2022-10-10T03:07:32.778Z,8.10
2022-10-10T03:09:59.263Z,7.93
2022-10-10T03:12:25.982Z,6.50
2022-10-10T03:14:52.541Z,8.13
2022-10-10T03:17:19.205Z,7.83
2022-10-10T03:19:45.833Z,7.80
2022-10-10T03:22:12.405Z,7.13
2022-10-10T03:24:38.933Z,7.40
2022-10-10T03:27:05.527Z,8.90
2022-10-10T03:29:32.260Z,7.40
2022-10-10T03:31:58.802Z,6.70
2022-10-10T03:34:25.418Z,7.17
2022-10-10T03:36:52.129Z,5.83
2022-10-10T03:39:18.690Z,8.23
2022-10-10T03:41:45.269Z,7.87
2022-10-10T03:44:11.857Z,6.83
2022-10-10T03:46:38.369Z,7.83
2022-10-10T03:49:04.887Z,8.47
2022-10-10T03:51:31.596Z,7.93
2022-10-10T03:53:58.100Z,8.00
2022-10-10T03:56:24.748Z,8.07
2022-10-10T03:58:51.238Z,7.30
2022-10-10T04:01:17.796Z,7.60
2022-10-10T04:03:47.590Z,7.13
2022-10-10T04:06:16.452Z,9.00
2022-10-10T04:08:42.981Z,7.60
2022-10-10T04:11:09.642Z,8.40
2022-10-10T04:13:36.147Z,7.63
2022-10-10T04:16:02.715Z,8.63
2022-10-10T04:18:29.405Z,9.80
2022-10-10T04:20:56.094Z,7.40
2022-10-10T04:23:22.879Z,6.57
2022-10-10T04:25:53.136Z,7.20
2022-10-10T04:28:19.682Z,6.83
2022-10-10T04:30:46.480Z,7.37
2022-10-10T04:33:13.031Z,7.60
2022-10-10T04:35:39.719Z,7.03
2022-10-10T04:38:06.678Z,8.10
2022-10-10T04:40:33.313Z,6.20
2022-10-10T04:43:00.150Z,8.07
2022-10-10T04:45:26.795Z,8.13
2022-10-10T04:47:53.933Z,8.57
2022-10-10T04:50:21.077Z,8.30
2022-10-10T04:52:47.989Z,9.70
2022-10-10T04:55:14.832Z,8.73
2022-10-10T04:57:41.451Z,7.10
2022-10-10T05:00:09.218Z,8.23
2022-10-10T05:02:35.768Z,7.93
2022-10-10T05:05:02.841Z,10.20
2022-10-10T05:07:29.413Z,8.33
2022-10-10T05:09:55.938Z,6.90
2022-10-10T05:12:22.432Z,7.83
2022-10-10T05:14:49.080Z,7.97
2022-10-10T05:17:15.828Z,8.53
2022-10-10T05:19:42.528Z,9.40
2022-10-10T05:22:09.078Z,11.40
2022-10-10T05:24:35.737Z,9.23
2022-10-10T05:27:02.188Z,8.07
2022-10-10T05:29:28.926Z,8.20
2022-10-10T05:31:55.661Z,9.37
2022-10-10T05:34:22.154Z,7.80
2022-10-10T05:36:48.817Z,9.10
2022-10-10T05:39:15.429Z,9.20
2022-10-10T05:41:42.116Z,8.97
2022-10-10T05:44:09.333Z,10.33
2022-10-10T05:46:35.855Z,10.40
2022-10-10T05:49:02.389Z,10.00
2022-10-10T05:51:29.094Z,9.07
2022-10-10T05:53:56.517Z,11.10
2022-10-10T05:56:23.701Z,10.33
2022-10-10T05:58:51.481Z,9.73
2022-10-10T06:01:18.428Z,9.67
2022-10-10T06:03:44.979Z,8.20
2022-10-10T06:06:11.497Z,8.47
2022-10-10T06:08:38.011Z,9.57
2022-10-10T06:11:07.886Z,7.87
2022-10-10T06:13:34.756Z,7.50
2022-10-10T06:16:01.398Z,7.50
2022-10-10T06:18:28.004Z,6.70
2022-10-10T06:20:54.701Z,6.70
2022-10-10T06:23:21.255Z,6.07
2022-10-10T06:25:48.014Z,5.90
2022-10-10T06:28:14.795Z,5.97
2022-10-10T06:30:42.523Z,6.27
2022-10-10T06:33:09.173Z,5.90
2022-10-10T06:35:39.111Z,6.63
2022-10-10T06:38:05.570Z,5.10
2022-10-10T06:40:32.346Z,5.60
2022-10-10T06:42:58.901Z,6.07
2022-10-10T06:45:25.759Z,6.60
2022-10-10T06:47:52.247Z,8.33
2022-10-10T06:50:18.797Z,7.30
2022-10-10T06:52:45.279Z,5.90
2022-10-10T06:55:11.802Z,7.40
2022-10-10T06:57:38.278Z,7.83
2022-10-10T07:00:05.700Z,7.80
2022-10-10T07:02:32.242Z,6.97
2022-10-10T07:04:58.766Z,8.10
2022-10-10T07:07:25.337Z,8.00
2022-10-10T07:09:51.788Z,8.53
2022-10-10T07:12:18.409Z,7.33
2022-10-10T07:14:44.928Z,7.50
2022-10-10T07:17:11.434Z,7.40
2022-10-10T07:19:37.997Z,9.80
2022-10-10T07:22:05.043Z,8.33
2022-10-10T07:24:31.564Z,8.33
2022-10-10T07:27:04.851Z,9.03
2022-10-10T07:29:34.456Z,8.93
2022-10-10T07:32:00.952Z,7.93
2022-10-10T07:34:27.501Z,7.83
2022-10-10T07:36:54.046Z,7.10
2022-10-10T07:39:21.466Z,9.07
2022-10-10T07:41:47.968Z,8.03
2022-10-10T07:44:14.497Z,7.93
2022-10-10T07:46:41.249Z,7.47
2022-10-10T07:49:07.791Z,8.70
2022-10-10T07:51:34.310Z,7.57
2022-10-10T07:54:00.867Z,6.97
2022-10-10T07:56:27.580Z,9.50
2022-10-10T07:58:54.104Z,8.67
2022-10-10T08:01:21.179Z,6.93
2022-10-10T08:03:48.585Z,6.53
2022-10-10T08:06:16.324Z,6.40
2022-10-10T08:08:50.845Z,8.40
2022-10-10T08:11:19.070Z,6.63
2022-10-10T08:13:45.866Z,7.90
2022-10-10T08:16:12.390Z,6.20
2022-10-10T08:18:38.915Z,6.60
2022-10-10T08:21:07.508Z,6.37
2022-10-10T08:23:34.430Z,5.37
2022-10-10T08:26:01.886Z,5.53
2022-10-10T08:28:28.573Z,5.50
2022-10-10T08:30:55.132Z,6.40
2022-10-10T08:33:21.748Z,5.20
2022-10-10T08:35:48.258Z,4.90
2022-10-10T08:38:15.046Z,4.23
2022-10-10T08:40:43.265Z,4.70
2022-10-10T08:43:16.860Z,6.30
2022-10-10T08:45:44.067Z,4.37
2022-10-10T08:48:12.531Z,4.77
2022-10-10T08:50:43.106Z,5.03
2022-10-10T08:53:14.146Z,4.93
2022-10-10T08:55:43.842Z,4.47
2022-10-10T08:58:19.554Z,5.03
2022-10-10T09:01:02.145Z,3.37
2022-10-10T09:03:47.551Z,3.87
2022-10-10T09:06:22.577Z,3.27
2022-10-10T09:08:54.189Z,3.10
2022-10-10T09:11:36.026Z,3.60
2022-10-10T09:14:19.345Z,3.33
2022-10-10T09:16:52.774Z,3.33
2022-10-10T09:19:24.461Z,3.10
2022-10-10T09:21:53.240Z,3.47
2022-10-10T09:24:26.098Z,3.90
2022-10-10T09:26:55.719Z,3.60
2022-10-10T09:29:31.762Z,3.00
2022-10-10T09:32:10.089Z,4.30
2022-10-10T09:34:42.278Z,2.97
2022-10-10T09:37:29.560Z,3.40
2022-10-10T09:40:12.990Z,2.90
2022-10-10T09:42:39.696Z,3.33
2022-10-10T09:45:17.876Z,3.50
2022-10-10T09:47:44.619Z,3.97
2022-10-10T09:50:15.465Z,4.33
2022-10-10T09:52:42.832Z,4.30
2022-10-10T09:55:23.518Z,3.47
2022-10-10T09:57:51.502Z,3.03
2022-10-10T10:00:21.051Z,2.80
2022-10-10T10:02:47.877Z,2.97
2022-10-10T10:05:27.809Z,2.87
2022-10-10T10:07:54.338Z,3.57
2022-10-10T10:10:22.326Z,2.70
2022-10-10T10:12:49.114Z,2.50
2022-10-10T10:15:23.639Z,3.50
2022-10-10T10:18:09.032Z,2.87
2022-10-10T10:20:39.129Z,3.03
2022-10-10T10:23:22.063Z,3.93
2022-10-10T10:25:56.851Z,3.33
2022-10-10T10:28:23.672Z,4.40
2022-10-10T10:30:52.477Z,3.10
2022-10-10T10:33:25.610Z,2.27
2022-10-10T10:36:12.672Z,2.90
2022-10-10T10:38:43.637Z,2.90
2022-10-10T10:41:14.156Z,2.70
2022-10-10T10:43:48.206Z,3.87
2022-10-10T10:46:27.799Z,3.60
2022-10-10T10:49:00.496Z,3.50
2022-10-10T10:51:39.001Z,3.00
2022-10-10T10:54:10.977Z,2.83
2022-10-10T10:56:40.556Z,2.47
2022-10-10T11:00:21.688Z,3.17
2022-10-10T11:02:43.552Z,2.93
2022-10-10T11:05:32.930Z,2.30
2022-10-10T11:08:22.048Z,2.70
2022-10-10T11:11:21.093Z,2.70
2022-10-10T11:13:47.819Z,3.30
2022-10-10T11:16:46.909Z,3.43
2022-10-10T11:19:10.981Z,3.33
2022-10-10T11:21:44.278Z,3.37
2022-10-10T11:24:13.772Z,2.80
2022-10-10T11:26:44.178Z,3.37
2022-10-10T11:29:13.534Z,2.40
2022-10-10T11:31:42.519Z,2.80
2022-10-10T11:34:15.571Z,3.53
2022-10-10T11:36:44.134Z,3.57
2022-10-10T11:39:15.280Z,4.00
2022-10-10T11:41:51.794Z,3.30
2022-10-10T11:44:21.454Z,3.60
2022-10-10T11:47:07.305Z,3.40
2022-10-10T11:49:38.385Z,3.37
2022-10-10T11:52:38.965Z,2.50
2022-10-10T11:55:26.779Z,4.17
2022-10-10T11:57:57.427Z,3.90
2022-10-10T12:00:23.910Z,4.00
2022-10-10T12:02:56.734Z,2.70
2022-10-10T12:05:24.787Z,3.80
2022-10-10T12:08:04.848Z,3.83
2022-10-10T12:10:44.229Z,3.50
2022-10-10T12:13:19.873Z,2.53
2022-10-10T12:15:50.218Z,3.90
2022-10-10T12:18:24.420Z,4.33
2022-10-10T12:21:02.766Z,5.30
2022-10-10T12:23:30.690Z,3.10
2022-10-10T12:25:57.677Z,3.77
2022-10-10T12:28:24.313Z,4.33
2022-10-10T12:30:58.415Z,4.20
2022-10-10T12:33:31.388Z,3.10
2022-10-10T12:36:17.823Z,4.50
2022-10-10T12:39:10.433Z,3.77
2022-10-10T12:41:47.125Z,4.40
2022-10-10T12:44:19.971Z,3.20
2022-10-10T12:46:49.761Z,4.17
2022-10-10T12:49:21.308Z,3.17
2022-10-10T12:52:01.396Z,2.37
2022-10-10T12:54:30.380Z,4.33
2022-10-10T12:57:05.845Z,3.30
2022-10-10T12:59:34.825Z,3.93
2022-10-10T13:02:04.320Z,4.00
2022-10-10T13:04:30.974Z,4.67
2022-10-10T13:07:00.154Z,3.93
2022-10-10T13:09:32.375Z,4.03
2022-10-10T13:12:01.556Z,4.10
2022-10-10T13:14:38.516Z,3.90
2022-10-10T13:17:23.052Z,3.63
2022-10-10T13:19:50.021Z,3.70
2022-10-10T13:22:17.209Z,3.70
2022-10-10T13:24:44.581Z,3.30
2022-10-10T13:27:19.667Z,4.07
2022-10-10T13:29:46.508Z,4.37
2022-10-10T13:32:18.114Z,4.10
2022-10-10T13:34:59.717Z,4.57
2022-10-10T13:37:27.372Z,3.10
2022-10-10T13:39:54.266Z,4.33
2022-10-10T13:42:34.982Z,4.40
2022-10-10T13:45:03.532Z,4.20
2022-10-10T13:47:49.239Z,3.87
2022-10-10T13:50:25.092Z,4.03
2022-10-10T13:53:14.896Z,4.77
2022-10-10T13:55:41.742Z,5.03
2022-10-10T13:58:09.619Z,4.00
2022-10-10T14:00:37.745Z,4.67
2022-10-10T14:03:16.265Z,5.33
2022-10-10T14:05:43.643Z,4.70
2022-10-10T14:08:18.252Z,4.63
2022-10-10T14:10:55.997Z,4.17
2022-10-10T14:13:22.721Z,5.73
2022-10-10T14:15:49.725Z,5.33
2022-10-10T14:18:16.352Z,4.33
2022-10-10T14:20:43.226Z,4.47
2022-10-10T14:23:09.839Z,4.67
2022-10-10T14:25:40.502Z,4.60
2022-10-10T14:28:19.653Z,5.67
2022-10-10T14:30:46.273Z,5.10
2022-10-10T14:33:13.520Z,4.70
2022-10-10T14:35:40.604Z,4.97
2022-10-10T14:38:07.583Z,5.90
2022-10-10T14:40:34.323Z,4.87
2022-10-10T14:43:01.093Z,5.40
2022-10-10T14:45:27.971Z,4.30
2022-10-10T14:47:54.706Z,4.83
2022-10-10T14:50:23.386Z,5.00
2022-10-10T14:52:50.193Z,4.17
2022-10-10T14:55:16.874Z,4.17
2022-10-10T14:57:43.508Z,6.17
2022-10-10T15:00:18.139Z,6.30
2022-10-10T15:02:45.922Z,5.20
2022-10-10T15:05:13.020Z,5.53
2022-10-10T15:07:39.738Z,5.70
2022-10-10T15:12:53.164Z,5.00
2022-10-10T15:15:19.886Z,4.67
2022-10-10T15:17:46.541Z,4.83
2022-10-10T15:20:13.559Z,6.97
2022-10-10T15:22:40.637Z,4.77
2022-10-10T15:25:07.522Z,4.50
2022-10-10T15:27:34.433Z,3.93
2022-10-10T15:30:01.165Z,4.30
2022-10-10T15:32:27.818Z,3.33
2022-10-10T15:34:54.441Z,5.33
2022-10-10T15:37:23.871Z,5.23
2022-10-10T15:39:50.452Z,5.17
2022-10-10T15:42:22.381Z,5.07
2022-10-10T15:44:50.249Z,4.30
2022-10-10T15:47:17.652Z,6.33
2022-10-10T15:49:44.343Z,4.67
2022-10-10T15:52:11.107Z,4.70
2022-10-10T15:54:37.703Z,3.90
2022-10-10T15:57:04.347Z,4.87
2022-10-10T15:59:31.094Z,5.07
2022-10-10T16:01:57.744Z,7.03
2022-10-10T16:04:25.274Z,5.20
2022-10-10T16:07:19.899Z,5.90
2022-10-10T16:09:40.004Z,6.10
2022-10-10T16:12:06.704Z,7.07
2022-10-10T16:14:33.248Z,9.43
2022-10-10T16:17:02.784Z,7.60
2022-10-10T16:19:29.589Z,5.87
2022-10-10T16:21:56.165Z,7.87
2022-10-10T16:24:22.858Z,6.87
2022-10-10T16:26:49.417Z,9.70
2022-10-10T16:29:18.554Z,8.90
2022-10-10T16:31:45.435Z,9.30
2022-10-10T16:34:12.956Z,10.43
2022-10-10T16:36:39.677Z,10.50
2022-10-10T16:39:06.221Z,10.80
2022-10-10T16:41:47.611Z,11.63
2022-10-10T16:44:15.896Z,9.73
2022-10-10T16:46:42.467Z,12.10
2022-10-10T16:49:09.671Z,11.93
2022-10-10T16:51:36.979Z,9.53
2022-10-10T16:54:05.437Z,12.47
2022-10-10T16:56:32.919Z,11.30
2022-10-10T16:59:00.047Z,13.90
2022-10-10T17:01:27.225Z,11.20
2022-10-10T17:03:53.905Z,12.10
2022-10-10T17:06:22.681Z,14.90
2022-10-10T17:08:50.403Z,13.07
2022-10-10T17:11:17.890Z,13.63
2022-10-10T17:13:44.772Z,11.67
2022-10-10T17:16:53.412Z,14.27
2022-10-10T17:19:00.673Z,11.70
2022-10-10T17:21:27.416Z,10.93
2022-10-10T17:23:54.109Z,9.50
2022-10-10T17:26:26.089Z,10.43
2022-10-10T17:28:56.680Z,11.47
2022-10-10T17:31:24.231Z,11.73
2022-10-10T17:33:53.835Z,9.90
2022-10-10T17:36:25.753Z,8.73
2022-10-10T17:38:53.118Z,8.83
2022-10-10T17:41:20.585Z,8.43
2022-10-10T17:43:47.650Z,8.37
2022-10-10T17:46:33.866Z,10.87
2022-10-10T17:49:01.632Z,9.07
2022-10-10T17:51:28.437Z,7.83
2022-10-10T17:53:55.095Z,7.00
2022-10-10T17:56:22.718Z,9.13
2022-10-10T17:58:50.311Z,5.37
2022-10-10T18:01:18.486Z,4.60
2022-10-10T18:03:45.509Z,4.60
2022-10-10T18:06:14.558Z,3.90
2022-10-10T18:08:41.307Z,5.10
2022-10-10T18:11:15.032Z,5.50
2022-10-10T18:13:41.635Z,6.67
2022-10-10T18:16:09.424Z,5.40
2022-10-10T18:18:36.869Z,6.40
2022-10-10T18:21:05.373Z,3.70
2022-10-10T18:23:32.321Z,3.23
2022-10-10T18:26:03.267Z,2.97
2022-10-10T18:28:31.472Z,2.50
2022-10-10T18:30:58.197Z,2.60
2022-10-10T18:33:24.760Z,2.20
2022-10-10T18:35:51.434Z,2.43
2022-10-10T18:38:18.043Z,2.57
2022-10-10T18:40:44.622Z,2.23
2022-10-10T18:43:11.213Z,2.70
2022-10-10T18:45:37.738Z,2.40
2022-10-10T18:48:04.502Z,2.30
2022-10-10T18:50:31.126Z,2.50
2022-10-10T18:52:58.180Z,1.87
2022-10-10T18:55:30.164Z,2.33
2022-10-10T18:57:57.848Z,3.10
2022-10-10T19:00:27.507Z,2.83
2022-10-10T19:02:54.134Z,2.07
2022-10-10T19:05:20.897Z,2.87
2022-10-10T19:07:47.500Z,4.10
2022-10-10T19:10:14.146Z,2.50
2022-10-10T19:12:45.154Z,3.07
2022-10-10T19:15:14.849Z,2.67
2022-10-10T19:17:41.534Z,2.90
2022-10-10T19:20:08.271Z,1.73
2022-10-10T19:22:34.852Z,2.47
2022-10-10T19:25:02.930Z,2.70
2022-10-10T19:27:29.622Z,2.80
2022-10-10T19:29:56.134Z,3.70
2022-10-10T19:32:23.069Z,2.83
2022-10-10T19:34:49.816Z,2.67
2022-10-10T19:37:16.494Z,3.07
2022-10-10T19:39:43.130Z,4.63
2022-10-10T19:42:09.730Z,3.50
2022-10-10T19:44:36.415Z,2.90
2022-10-10T19:47:03.166Z,3.80
2022-10-10T19:49:30.272Z,4.20
2022-10-10T19:51:56.900Z,3.00
2022-10-10T19:54:23.517Z,4.70
2022-10-10T19:56:50.916Z,5.30
2022-10-10T19:59:17.712Z,5.23
2022-10-10T20:01:44.723Z,4.33
2022-10-10T20:04:12.024Z,5.97
2022-10-10T20:06:43.305Z,6.10
2022-10-10T20:09:11.225Z,5.00
2022-10-10T20:11:38.448Z,6.30
2022-10-10T20:14:05.105Z,3.90
2022-10-10T20:16:31.903Z,4.93
2022-10-10T20:18:58.874Z,3.87
2022-10-10T20:21:29.519Z,3.23
2022-10-10T20:23:56.629Z,3.20
2022-10-10T20:26:23.722Z,3.23
2022-10-10T20:28:51.233Z,5.03
2022-10-10T20:31:20.153Z,4.60
2022-10-10T20:33:47.900Z,3.53
2022-10-10T20:36:14.846Z,6.87
2022-10-10T20:38:41.775Z,5.67
2022-10-10T20:41:08.963Z,4.97
2022-10-10T20:43:37.221Z,4.10
2022-10-10T20:46:07.895Z,3.87
2022-10-10T20:48:34.998Z,4.40
2022-10-10T20:51:02.429Z,4.73
2022-10-10T20:53:29.043Z,4.77
2022-10-10T20:55:55.565Z,4.20
2022-10-10T20:58:22.046Z,4.20
2022-10-10T21:00:48.624Z,5.97
2022-10-10T21:03:15.161Z,4.13
2022-10-10T21:05:41.703Z,5.67
2022-10-10T21:08:09.416Z,5.97
2022-10-10T21:10:36.953Z,5.93
2022-10-10T21:13:03.499Z,7.50
2022-10-10T21:15:30.027Z,6.30
2022-10-10T21:17:57.075Z,6.60
2022-10-10T21:20:23.664Z,5.80
2022-10-10T21:22:50.139Z,5.80
2022-10-10T21:25:16.719Z,8.70
2022-10-10T21:27:43.238Z,23.40
2022-10-10T21:30:09.990Z,21.70
2022-10-10T21:32:36.476Z,18.27
2022-10-10T21:35:03.065Z,15.23
2022-10-10T21:37:30.483Z,15.03
2022-10-10T21:39:56.995Z,17.70
2022-10-10T21:42:23.465Z,19.90
2022-10-10T21:44:49.946Z,17.03
2022-10-10T21:47:16.453Z,14.50
2022-10-10T21:49:42.935Z,15.40
2022-10-10T21:52:09.507Z,12.03
2022-10-10T21:54:36.005Z,11.47
2022-10-10T21:57:02.548Z,11.27
2022-10-10T21:59:31.824Z,11.00
2022-10-10T22:01:58.447Z,10.63
2022-10-10T22:04:28.815Z,10.33
2022-10-10T22:06:56.048Z,11.40
2022-10-10T22:09:22.725Z,10.90
2022-10-10T22:11:49.874Z,12.53
2022-10-10T22:14:16.457Z,13.40
2022-10-10T22:16:42.943Z,11.40
2022-10-10T22:19:09.568Z,10.87
2022-10-10T22:21:36.156Z,10.57
2022-10-10T22:24:05.001Z,13.47
2022-10-10T22:26:31.773Z,13.80
2022-10-10T22:28:58.426Z,15.40
2022-10-10T22:31:25.194Z,16.77
2022-10-10T22:33:51.788Z,15.20
2022-10-10T22:36:18.355Z,17.00
2022-10-10T22:38:45.081Z,15.00
2022-10-10T22:41:11.885Z,14.67
2022-10-10T22:43:38.500Z,15.87
2022-10-10T22:46:06.016Z,15.10
2022-10-10T22:48:32.915Z,15.33
2022-10-10T22:51:03.862Z,16.20
2022-10-10T22:53:31.041Z,16.17
2022-10-10T22:55:57.600Z,15.43
2022-10-10T22:58:24.301Z,15.47
2022-10-10T23:00:51.331Z,15.67
2022-10-10T23:03:17.934Z,17.67
2022-10-10T23:05:45.159Z,16.03
2022-10-10T23:08:11.826Z,15.20
2022-10-10T23:10:38.384Z,15.97
2022-10-10T23:13:04.905Z,16.30
2022-10-10T23:15:31.702Z,15.57
2022-10-10T23:17:58.223Z,15.50
2022-10-10T23:20:25.002Z,18.00
2022-10-10T23:22:51.664Z,19.50
2022-10-10T23:25:18.154Z,19.27
2022-10-10T23:27:44.816Z,19.10
2022-10-10T23:30:11.542Z,20.57
2022-10-10T23:32:38.195Z,18.80
2022-10-10T23:35:04.860Z,20.60
2022-10-10T23:37:31.395Z,22.53
2022-10-10T23:39:58.144Z,23.77
2022-10-10T23:42:24.729Z,23.23
2022-10-10T23:44:51.443Z,22.87
2022-10-10T23:47:17.964Z,24.33
2022-10-10T23:49:44.772Z,24.43
2022-10-10T23:52:11.349Z,23.47
2022-10-10T23:54:38.083Z,23.60
2022-10-10T23:57:04.627Z,25.10
2022-10-10T23:59:31.161Z,23.90
